sensor_id;sensor_type;location;lat;lon;timestamp;P1;durP1;ratioP1;P2;durP2;ratioP2
11086;SDS011;5597;47.588;9.642;2023-02-04T00:00:52;2.60;;;2.40;;
11086;SDS011;5597;47.588;9.642;2023-02-04T00:03:17;2.97;;;2.70;;
11086;SDS011;5597;47.588;9.642;2023-02-04T00:05:43;2.70;;;2.50;;
11086;SDS011;5597;47.588;9.642;2023-02-04T00:08:08;3.60;;;2.77;;
11086;SDS011;5597;47.588;9.642;2023-02-04T00:10:34;3.90;;;2.57;;
11086;SDS011;5597;47.588;9.642;2023-02-04T00:13:01;2.87;;;2.57;;
11086;SDS011;5597;47.588;9.642;2023-02-04T00:15:27;2.20;;;2.00;;
11086;SDS011;5597;47.588;9.642;2023-02-04T00:17:53;2.50;;;1.93;;
11086;SDS011;5597;47.588;9.642;2023-02-04T00:20:18;2.10;;;1.90;;
11086;SDS011;5597;47.588;9.642;2023-02-04T00:22:44;3.33;;;2.07;;
11086;SDS011;5597;47.588;9.642;2023-02-04T00:25:10;2.40;;;1.90;;
11086;SDS011;5597;47.588;9.642;2023-02-04T00:27:35;1.70;;;1.60;;
11086;SDS011;5597;47.588;9.642;2023-02-04T00:30:02;1.67;;;1.20;;
11086;SDS011;5597;47.588;9.642;2023-02-04T00:32:32;2.80;;;1.30;;
11086;SDS011;5597;47.588;9.642;2023-02-04T00:34:58;1.20;;;1.10;;
11086;SDS011;5597;47.588;9.642;2023-02-04T00:37:25;1.73;;;1.17;;
11086;SDS011;5597;47.588;9.642;2023-02-04T00:39:51;2.03;;;1.33;;
11086;SDS011;5597;47.588;9.642;2023-02-04T00:42:16;1.73;;;1.20;;
11086;SDS011;5597;47.588;9.642;2023-02-04T00:44:42;1.63;;;1.10;;
11086;SDS011;5597;47.588;9.642;2023-02-04T00:47:08;1.60;;;1.20;;
11086;SDS011;5597;47.588;9.642;2023-02-04T00:49:33;1.40;;;1.20;;
11086;SDS011;5597;47.588;9.642;2023-02-04T00:51:59;1.10;;;1.00;;
11086;SDS011;5597;47.588;9.642;2023-02-04T00:54:25;1.40;;;1.13;;
11086;SDS011;5597;47.588;9.642;2023-02-04T00:56:50;1.17;;;1.07;;
11086;SDS011;5597;47.588;9.642;2023-02-04T00:59:16;1.77;;;1.10;;
11086;SDS011;5597;47.588;9.642;2023-02-04T01:01:42;1.53;;;1.17;;
11086;SDS011;5597;47.588;9.642;2023-02-04T01:04:08;1.47;;;1.10;;
11086;SDS011;5597;47.588;9.642;2023-02-04T01:06:34;2.50;;;1.23;;
11086;SDS011;5597;47.588;9.642;2023-02-04T01:09:00;1.40;;;1.30;;
11086;SDS011;5597;47.588;9.642;2023-02-04T01:11:27;1.10;;;1.00;;
11086;SDS011;5597;47.588;9.642;2023-02-04T01:13:53;1.20;;;1.10;;
11086;SDS011;5597;47.588;9.642;2023-02-04T01:16:19;1.03;;;0.97;;
11086;SDS011;5597;47.588;9.642;2023-02-04T01:18:45;2.00;;;1.10;;
11086;SDS011;5597;47.588;9.642;2023-02-04T01:21:10;1.10;;;1.00;;
11086;SDS011;5597;47.588;9.642;2023-02-04T01:23:36;1.13;;;1.00;;
11086;SDS011;5597;47.588;9.642;2023-02-04T01:26:02;1.13;;;1.03;;
11086;SDS011;5597;47.588;9.642;2023-02-04T01:28:27;1.07;;;0.97;;
11086;SDS011;5597;47.588;9.642;2023-02-04T01:30:53;1.03;;;0.93;;
11086;SDS011;5597;47.588;9.642;2023-02-04T01:33:19;1.10;;;1.00;;
11086;SDS011;5597;47.588;9.642;2023-02-04T01:35:45;0.83;;;0.83;;
11086;SDS011;5597;47.588;9.642;2023-02-04T01:38:10;1.10;;;1.00;;
11086;SDS011;5597;47.588;9.642;2023-02-04T01:40:36;1.17;;;1.07;;
11086;SDS011;5597;47.588;9.642;2023-02-04T01:43:02;1.37;;;1.20;;
11086;SDS011;5597;47.588;9.642;2023-02-04T01:45:28;1.13;;;1.00;;
11086;SDS011;5597;47.588;9.642;2023-02-04T01:47:54;0.93;;;0.80;;
11086;SDS011;5597;47.588;9.642;2023-02-04T01:50:20;1.43;;;1.20;;
11086;SDS011;5597;47.588;9.642;2023-02-04T01:52:46;1.00;;;0.90;;
11086;SDS011;5597;47.588;9.642;2023-02-04T01:55:13;1.30;;;1.20;;
11086;SDS011;5597;47.588;9.642;2023-02-04T01:57:40;1.27;;;1.17;;
11086;SDS011;5597;47.588;9.642;2023-02-04T02:00:11;1.27;;;1.17;;
11086;SDS011;5597;47.588;9.642;2023-02-04T02:05:18;1.20;;;1.10;;
11086;SDS011;5597;47.588;9.642;2023-02-04T02:07:47;1.70;;;1.10;;
11086;SDS011;5597;47.588;9.642;2023-02-04T02:10:14;1.30;;;1.10;;
11086;SDS011;5597;47.588;9.642;2023-02-04T02:12:41;1.40;;;1.10;;
11086;SDS011;5597;47.588;9.642;2023-02-04T02:15:07;1.17;;;1.00;;
11086;SDS011;5597;47.588;9.642;2023-02-04T02:17:33;1.27;;;1.17;;
11086;SDS011;5597;47.588;9.642;2023-02-04T02:19:59;1.53;;;1.30;;
11086;SDS011;5597;47.588;9.642;2023-02-04T02:22:29;1.43;;;1.30;;
11086;SDS011;5597;47.588;9.642;2023-02-04T02:25:00;1.30;;;1.20;;
11086;SDS011;5597;47.588;9.642;2023-02-04T02:27:31;1.40;;;1.30;;
11086;SDS011;5597;47.588;9.642;2023-02-04T02:29:57;1.40;;;1.30;;
11086;SDS011;5597;47.588;9.642;2023-02-04T02:32:22;1.30;;;1.20;;
11086;SDS011;5597;47.588;9.642;2023-02-04T02:34:48;1.70;;;1.47;;
11086;SDS011;5597;47.588;9.642;2023-02-04T02:37:13;1.33;;;1.23;;
11086;SDS011;5597;47.588;9.642;2023-02-04T02:39:39;1.47;;;1.37;;
11086;SDS011;5597;47.588;9.642;2023-02-04T02:42:08;1.20;;;0.97;;
11086;SDS011;5597;47.588;9.642;2023-02-04T02:44:37;1.30;;;1.20;;
11086;SDS011;5597;47.588;9.642;2023-02-04T02:47:03;1.37;;;1.27;;
11086;SDS011;5597;47.588;9.642;2023-02-04T02:49:29;1.40;;;1.30;;
11086;SDS011;5597;47.588;9.642;2023-02-04T02:51:56;1.27;;;1.17;;
11086;SDS011;5597;47.588;9.642;2023-02-04T02:56:49;1.43;;;1.00;;
11086;SDS011;5597;47.588;9.642;2023-02-04T02:59:16;1.63;;;1.33;;
11086;SDS011;5597;47.588;9.642;2023-02-04T03:01:42;1.40;;;1.30;;
11086;SDS011;5597;47.588;9.642;2023-02-04T03:04:09;1.30;;;1.20;;
11086;SDS011;5597;47.588;9.642;2023-02-04T03:06:36;1.30;;;1.20;;
11086;SDS011;5597;47.588;9.642;2023-02-04T03:09:02;1.53;;;1.43;;
11086;SDS011;5597;47.588;9.642;2023-02-04T03:11:27;1.20;;;1.10;;
11086;SDS011;5597;47.588;9.642;2023-02-04T03:13:56;1.80;;;1.40;;
11086;SDS011;5597;47.588;9.642;2023-02-04T03:16:25;1.97;;;1.20;;
11086;SDS011;5597;47.588;9.642;2023-02-04T03:18:56;1.30;;;1.20;;
11086;SDS011;5597;47.588;9.642;2023-02-04T03:21:25;1.60;;;1.50;;
11086;SDS011;5597;47.588;9.642;2023-02-04T03:23:51;1.40;;;1.30;;
11086;SDS011;5597;47.588;9.642;2023-02-04T03:26:20;1.57;;;1.47;;
11086;SDS011;5597;47.588;9.642;2023-02-04T03:28:47;1.80;;;1.70;;
11086;SDS011;5597;47.588;9.642;2023-02-04T03:31:13;2.00;;;1.80;;
11086;SDS011;5597;47.588;9.642;2023-02-04T03:33:39;2.10;;;1.80;;
11086;SDS011;5597;47.588;9.642;2023-02-04T03:36:06;2.00;;;1.80;;
11086;SDS011;5597;47.588;9.642;2023-02-04T03:38:32;1.70;;;1.60;;
11086;SDS011;5597;47.588;9.642;2023-02-04T03:40:58;1.90;;;1.80;;
11086;SDS011;5597;47.588;9.642;2023-02-04T03:43:24;2.23;;;2.03;;
11086;SDS011;5597;47.588;9.642;2023-02-04T03:45:49;2.20;;;2.00;;
11086;SDS011;5597;47.588;9.642;2023-02-04T03:48:15;2.23;;;2.03;;
11086;SDS011;5597;47.588;9.642;2023-02-04T03:50:41;2.13;;;1.90;;
11086;SDS011;5597;47.588;9.642;2023-02-04T03:53:07;2.33;;;2.13;;
11086;SDS011;5597;47.588;9.642;2023-02-04T03:55:32;2.30;;;2.10;;
11086;SDS011;5597;47.588;9.642;2023-02-04T03:57:58;2.10;;;1.90;;
11086;SDS011;5597;47.588;9.642;2023-02-04T04:00:24;2.37;;;2.17;;
11086;SDS011;5597;47.588;9.642;2023-02-04T04:02:49;2.50;;;2.30;;
11086;SDS011;5597;47.588;9.642;2023-02-04T04:05:15;2.20;;;2.00;;
11086;SDS011;5597;47.588;9.642;2023-02-04T04:07:41;2.60;;;2.40;;
11086;SDS011;5597;47.588;9.642;2023-02-04T04:10:06;2.70;;;2.23;;
11086;SDS011;5597;47.588;9.642;2023-02-04T04:12:32;2.53;;;2.33;;
11086;SDS011;5597;47.588;9.642;2023-02-04T04:14:58;2.53;;;2.33;;
11086;SDS011;5597;47.588;9.642;2023-02-04T04:17:23;2.33;;;2.13;;
11086;SDS011;5597;47.588;9.642;2023-02-04T04:19:49;2.43;;;2.23;;
11086;SDS011;5597;47.588;9.642;2023-02-04T04:22:14;2.20;;;2.00;;
11086;SDS011;5597;47.588;9.642;2023-02-04T04:24:40;2.00;;;1.80;;
11086;SDS011;5597;47.588;9.642;2023-02-04T04:27:06;2.13;;;1.70;;
11086;SDS011;5597;47.588;9.642;2023-02-04T04:29:32;1.93;;;1.67;;
11086;SDS011;5597;47.588;9.642;2023-02-04T04:31:57;1.90;;;1.70;;
11086;SDS011;5597;47.588;9.642;2023-02-04T04:34:23;2.47;;;1.87;;
11086;SDS011;5597;47.588;9.642;2023-02-04T04:36:49;2.00;;;1.80;;
11086;SDS011;5597;47.588;9.642;2023-02-04T04:39:14;1.73;;;1.50;;
11086;SDS011;5597;47.588;9.642;2023-02-04T04:41:40;1.80;;;1.70;;
11086;SDS011;5597;47.588;9.642;2023-02-04T04:44:05;1.50;;;1.40;;
11086;SDS011;5597;47.588;9.642;2023-02-04T04:46:31;1.67;;;1.40;;
11086;SDS011;5597;47.588;9.642;2023-02-04T04:48:57;2.27;;;1.60;;
11086;SDS011;5597;47.588;9.642;2023-02-04T04:51:22;2.00;;;1.80;;
11086;SDS011;5597;47.588;9.642;2023-02-04T04:53:48;1.70;;;1.50;;
11086;SDS011;5597;47.588;9.642;2023-02-04T04:56:13;1.67;;;1.57;;
11086;SDS011;5597;47.588;9.642;2023-02-04T04:58:39;1.53;;;1.43;;
11086;SDS011;5597;47.588;9.642;2023-02-04T05:01:05;1.80;;;1.70;;
11086;SDS011;5597;47.588;9.642;2023-02-04T05:03:30;2.00;;;1.90;;
11086;SDS011;5597;47.588;9.642;2023-02-04T05:05:56;2.23;;;2.07;;
11086;SDS011;5597;47.588;9.642;2023-02-04T05:08:22;2.53;;;2.30;;
11086;SDS011;5597;47.588;9.642;2023-02-04T05:10:47;2.33;;;2.13;;
11086;SDS011;5597;47.588;9.642;2023-02-04T05:13:13;2.47;;;2.27;;
11086;SDS011;5597;47.588;9.642;2023-02-04T05:15:39;2.30;;;2.10;;
11086;SDS011;5597;47.588;9.642;2023-02-04T05:18:04;3.07;;;2.60;;
11086;SDS011;5597;47.588;9.642;2023-02-04T05:20:30;2.53;;;2.33;;
11086;SDS011;5597;47.588;9.642;2023-02-04T05:22:56;2.37;;;2.17;;
11086;SDS011;5597;47.588;9.642;2023-02-04T05:25:25;2.23;;;2.03;;
11086;SDS011;5597;47.588;9.642;2023-02-04T05:27:51;2.60;;;2.37;;
11086;SDS011;5597;47.588;9.642;2023-02-04T05:30:17;2.30;;;2.10;;
11086;SDS011;5597;47.588;9.642;2023-02-04T05:32:42;3.20;;;2.50;;
11086;SDS011;5597;47.588;9.642;2023-02-04T05:35:08;2.33;;;2.13;;
11086;SDS011;5597;47.588;9.642;2023-02-04T05:37:34;2.60;;;2.40;;
11086;SDS011;5597;47.588;9.642;2023-02-04T05:39:59;2.43;;;2.23;;
11086;SDS011;5597;47.588;9.642;2023-02-04T05:42:25;2.70;;;2.50;;
11086;SDS011;5597;47.588;9.642;2023-02-04T05:44:51;2.27;;;2.07;;
11086;SDS011;5597;47.588;9.642;2023-02-04T05:47:16;2.27;;;2.07;;
11086;SDS011;5597;47.588;9.642;2023-02-04T05:49:44;2.17;;;2.00;;
11086;SDS011;5597;47.588;9.642;2023-02-04T05:52:10;2.07;;;1.97;;
11086;SDS011;5597;47.588;9.642;2023-02-04T05:54:35;2.40;;;2.20;;
11086;SDS011;5597;47.588;9.642;2023-02-04T05:57:01;2.50;;;2.30;;
11086;SDS011;5597;47.588;9.642;2023-02-04T05:59:26;2.80;;;2.60;;
11086;SDS011;5597;47.588;9.642;2023-02-04T06:01:52;2.80;;;2.60;;
11086;SDS011;5597;47.588;9.642;2023-02-04T06:04:18;3.17;;;2.97;;
11086;SDS011;5597;47.588;9.642;2023-02-04T06:06:44;3.77;;;3.00;;
11086;SDS011;5597;47.588;9.642;2023-02-04T06:09:10;3.13;;;2.83;;
11086;SDS011;5597;47.588;9.642;2023-02-04T06:11:35;4.27;;;3.97;;
11086;SDS011;5597;47.588;9.642;2023-02-04T06:14:01;3.83;;;3.53;;
11086;SDS011;5597;47.588;9.642;2023-02-04T06:16:27;3.30;;;3.00;;
11086;SDS011;5597;47.588;9.642;2023-02-04T06:18:52;2.80;;;2.60;;
11086;SDS011;5597;47.588;9.642;2023-02-04T06:21:18;2.87;;;2.67;;
11086;SDS011;5597;47.588;9.642;2023-02-04T06:23:43;3.23;;;2.93;;
11086;SDS011;5597;47.588;9.642;2023-02-04T06:26:09;3.10;;;2.90;;
11086;SDS011;5597;47.588;9.642;2023-02-04T06:28:35;3.27;;;2.97;;
11086;SDS011;5597;47.588;9.642;2023-02-04T06:31:01;2.97;;;2.77;;
11086;SDS011;5597;47.588;9.642;2023-02-04T06:33:27;2.90;;;2.70;;
11086;SDS011;5597;47.588;9.642;2023-02-04T06:35:52;2.97;;;2.77;;
11086;SDS011;5597;47.588;9.642;2023-02-04T06:38:18;3.13;;;2.83;;
11086;SDS011;5597;47.588;9.642;2023-02-04T06:40:43;2.50;;;2.30;;
11086;SDS011;5597;47.588;9.642;2023-02-04T06:43:14;2.73;;;2.47;;
11086;SDS011;5597;47.588;9.642;2023-02-04T06:45:40;3.17;;;2.87;;
11086;SDS011;5597;47.588;9.642;2023-02-04T06:48:05;4.47;;;4.07;;
11086;SDS011;5597;47.588;9.642;2023-02-04T06:50:31;4.27;;;3.87;;
11086;SDS011;5597;47.588;9.642;2023-02-04T06:52:57;4.13;;;3.73;;
11086;SDS011;5597;47.588;9.642;2023-02-04T06:55:22;4.17;;;3.77;;
11086;SDS011;5597;47.588;9.642;2023-02-04T06:57:48;4.27;;;3.87;;
11086;SDS011;5597;47.588;9.642;2023-02-04T07:00:13;3.83;;;3.53;;
11086;SDS011;5597;47.588;9.642;2023-02-04T07:02:39;4.67;;;4.27;;
11086;SDS011;5597;47.588;9.642;2023-02-04T07:05:06;4.53;;;4.10;;
11086;SDS011;5597;47.588;9.642;2023-02-04T07:07:32;5.23;;;4.67;;
11086;SDS011;5597;47.588;9.642;2023-02-04T07:09:58;6.47;;;4.87;;
11086;SDS011;5597;47.588;9.642;2023-02-04T07:12:24;5.73;;;5.13;;
11086;SDS011;5597;47.588;9.642;2023-02-04T07:14:49;6.90;;;5.63;;
11086;SDS011;5597;47.588;9.642;2023-02-04T07:17:15;6.90;;;5.37;;
11086;SDS011;5597;47.588;9.642;2023-02-04T07:19:41;6.60;;;5.90;;
11086;SDS011;5597;47.588;9.642;2023-02-04T07:22:06;6.50;;;5.40;;
11086;SDS011;5597;47.588;9.642;2023-02-04T07:24:32;7.17;;;5.63;;
11086;SDS011;5597;47.588;9.642;2023-02-04T07:26:57;4.87;;;4.37;;
11086;SDS011;5597;47.588;9.642;2023-02-04T07:29:23;4.87;;;4.33;;
11086;SDS011;5597;47.588;9.642;2023-02-04T07:31:49;4.50;;;3.80;;
11086;SDS011;5597;47.588;9.642;2023-02-04T07:34:18;4.83;;;4.33;;
11086;SDS011;5597;47.588;9.642;2023-02-04T07:36:43;5.70;;;5.10;;
11086;SDS011;5597;47.588;9.642;2023-02-04T07:39:09;21.90;;;17.23;;
11086;SDS011;5597;47.588;9.642;2023-02-04T07:41:35;21.90;;;18.17;;
11086;SDS011;5597;47.588;9.642;2023-02-04T07:44:01;14.37;;;12.83;;
11086;SDS011;5597;47.588;9.642;2023-02-04T07:46:26;10.23;;;9.13;;
11086;SDS011;5597;47.588;9.642;2023-02-04T07:48:52;6.73;;;6.00;;
11086;SDS011;5597;47.588;9.642;2023-02-04T07:51:18;5.97;;;5.00;;
11086;SDS011;5597;47.588;9.642;2023-02-04T07:53:43;5.93;;;5.30;;
11086;SDS011;5597;47.588;9.642;2023-02-04T07:56:09;6.00;;;5.30;;
11086;SDS011;5597;47.588;9.642;2023-02-04T07:58:34;5.70;;;5.13;;
11086;SDS011;5597;47.588;9.642;2023-02-04T08:01:00;4.80;;;4.30;;
11086;SDS011;5597;47.588;9.642;2023-02-04T08:03:26;4.13;;;3.70;;
11086;SDS011;5597;47.588;9.642;2023-02-04T08:05:52;3.20;;;2.90;;
11086;SDS011;5597;47.588;9.642;2023-02-04T08:08:17;2.90;;;2.60;;
11086;SDS011;5597;47.588;9.642;2023-02-04T08:10:44;2.70;;;2.50;;
11086;SDS011;5597;47.588;9.642;2023-02-04T08:13:10;2.20;;;1.83;;
11086;SDS011;5597;47.588;9.642;2023-02-04T08:15:35;1.60;;;1.40;;
11086;SDS011;5597;47.588;9.642;2023-02-04T08:18:01;1.83;;;1.70;;
11086;SDS011;5597;47.588;9.642;2023-02-04T08:20:27;2.90;;;1.67;;
11086;SDS011;5597;47.588;9.642;2023-02-04T08:22:52;2.07;;;1.87;;
11086;SDS011;5597;47.588;9.642;2023-02-04T08:25:18;2.40;;;1.97;;
11086;SDS011;5597;47.588;9.642;2023-02-04T08:27:44;1.53;;;1.40;;
11086;SDS011;5597;47.588;9.642;2023-02-04T08:30:09;2.37;;;1.73;;
11086;SDS011;5597;47.588;9.642;2023-02-04T08:32:35;2.10;;;1.60;;
11086;SDS011;5597;47.588;9.642;2023-02-04T08:35:01;1.90;;;1.40;;
11086;SDS011;5597;47.588;9.642;2023-02-04T08:37:27;1.40;;;1.20;;
11086;SDS011;5597;47.588;9.642;2023-02-04T08:39:52;1.80;;;1.70;;
11086;SDS011;5597;47.588;9.642;2023-02-04T08:42:18;2.53;;;2.00;;
11086;SDS011;5597;47.588;9.642;2023-02-04T08:44:44;2.10;;;1.83;;
11086;SDS011;5597;47.588;9.642;2023-02-04T08:47:09;2.80;;;2.50;;
11086;SDS011;5597;47.588;9.642;2023-02-04T08:49:35;2.70;;;2.33;;
11086;SDS011;5597;47.588;9.642;2023-02-04T08:52:01;3.60;;;2.40;;
11086;SDS011;5597;47.588;9.642;2023-02-04T08:54:28;2.03;;;1.83;;
11086;SDS011;5597;47.588;9.642;2023-02-04T08:56:54;2.43;;;2.23;;
11086;SDS011;5597;47.588;9.642;2023-02-04T08:59:19;2.83;;;2.37;;
11086;SDS011;5597;47.588;9.642;2023-02-04T09:01:48;3.20;;;2.50;;
11086;SDS011;5597;47.588;9.642;2023-02-04T09:04:16;3.17;;;2.87;;
11086;SDS011;5597;47.588;9.642;2023-02-04T09:06:46;3.23;;;2.67;;
11086;SDS011;5597;47.588;9.642;2023-02-04T09:09:12;2.90;;;2.60;;
11086;SDS011;5597;47.588;9.642;2023-02-04T09:11:38;3.73;;;3.20;;
11086;SDS011;5597;47.588;9.642;2023-02-04T09:14:04;3.30;;;3.00;;
11086;SDS011;5597;47.588;9.642;2023-02-04T09:16:29;3.77;;;3.10;;
11086;SDS011;5597;47.588;9.642;2023-02-04T09:18:55;3.63;;;3.33;;
11086;SDS011;5597;47.588;9.642;2023-02-04T09:21:22;3.67;;;3.37;;
11086;SDS011;5597;47.588;9.642;2023-02-04T09:23:48;4.00;;;3.17;;
11086;SDS011;5597;47.588;9.642;2023-02-04T09:26:14;3.33;;;3.03;;
11086;SDS011;5597;47.588;9.642;2023-02-04T09:28:40;4.20;;;3.80;;
11086;SDS011;5597;47.588;9.642;2023-02-04T09:31:05;4.07;;;3.67;;
11086;SDS011;5597;47.588;9.642;2023-02-04T09:33:31;4.00;;;3.57;;
11086;SDS011;5597;47.588;9.642;2023-02-04T09:35:57;3.47;;;3.17;;
11086;SDS011;5597;47.588;9.642;2023-02-04T09:38:23;3.80;;;3.43;;
11086;SDS011;5597;47.588;9.642;2023-02-04T09:41:03;7.03;;;5.53;;
11086;SDS011;5597;47.588;9.642;2023-02-04T09:43:38;7.87;;;6.43;;
11086;SDS011;5597;47.588;9.642;2023-02-04T09:46:08;7.50;;;6.43;;
11086;SDS011;5597;47.588;9.642;2023-02-04T09:48:47;5.13;;;4.63;;
11086;SDS011;5597;47.588;9.642;2023-02-04T09:51:16;6.13;;;5.53;;
11086;SDS011;5597;47.588;9.642;2023-02-04T09:53:44;5.60;;;5.10;;
11086;SDS011;5597;47.588;9.642;2023-02-04T09:56:12;5.20;;;4.70;;
11086;SDS011;5597;47.588;9.642;2023-02-04T09:58:39;4.63;;;4.23;;
11086;SDS011;5597;47.588;9.642;2023-02-04T10:01:11;4.47;;;4.07;;
11086;SDS011;5597;47.588;9.642;2023-02-04T10:03:40;4.60;;;4.10;;
11086;SDS011;5597;47.588;9.642;2023-02-04T10:06:19;4.67;;;4.27;;
11086;SDS011;5597;47.588;9.642;2023-02-04T10:08:46;4.40;;;4.00;;
11086;SDS011;5597;47.588;9.642;2023-02-04T10:11:13;4.93;;;4.20;;
11086;SDS011;5597;47.588;9.642;2023-02-04T10:13:46;5.37;;;4.87;;
11086;SDS011;5597;47.588;9.642;2023-02-04T10:16:16;5.43;;;4.33;;
11086;SDS011;5597;47.588;9.642;2023-02-04T10:18:43;4.20;;;3.80;;
11086;SDS011;5597;47.588;9.642;2023-02-04T10:23:43;3.40;;;3.10;;
11086;SDS011;5597;47.588;9.642;2023-02-04T10:26:12;3.70;;;3.40;;
11086;SDS011;5597;47.588;9.642;2023-02-04T10:28:39;2.70;;;2.50;;
11086;SDS011;5597;47.588;9.642;2023-02-04T10:31:06;3.60;;;3.30;;
11086;SDS011;5597;47.588;9.642;2023-02-04T10:33:50;3.50;;;3.20;;
11086;SDS011;5597;47.588;9.642;2023-02-04T10:36:30;4.17;;;3.10;;
11086;SDS011;5597;47.588;9.642;2023-02-04T10:39:03;2.77;;;2.57;;
11086;SDS011;5597;47.588;9.642;2023-02-04T10:41:31;3.00;;;2.80;;
11086;SDS011;5597;47.588;9.642;2023-02-04T10:44:32;2.97;;;2.70;;
11086;SDS011;5597;47.588;9.642;2023-02-04T10:47:01;2.97;;;2.70;;
11086;SDS011;5597;47.588;9.642;2023-02-04T10:49:29;3.00;;;2.40;;
11086;SDS011;5597;47.588;9.642;2023-02-04T10:51:55;2.97;;;2.63;;
11086;SDS011;5597;47.588;9.642;2023-02-04T10:54:22;3.20;;;2.90;;
11086;SDS011;5597;47.588;9.642;2023-02-04T10:59:44;2.67;;;2.40;;
11086;SDS011;5597;47.588;9.642;2023-02-04T11:02:57;2.60;;;2.40;;
11086;SDS011;5597;47.588;9.642;2023-02-04T11:05:18;3.03;;;2.77;;
11086;SDS011;5597;47.588;9.642;2023-02-04T11:07:48;2.70;;;2.50;;
11086;SDS011;5597;47.588;9.642;2023-02-04T11:10:19;2.97;;;2.67;;
11086;SDS011;5597;47.588;9.642;2023-02-04T11:15:38;2.57;;;2.37;;
11086;SDS011;5597;47.588;9.642;2023-02-04T11:18:07;2.60;;;2.37;;
11086;SDS011;5597;47.588;9.642;2023-02-04T11:20:46;2.63;;;1.90;;
11086;SDS011;5597;47.588;9.642;2023-02-04T11:23:16;2.23;;;1.90;;
11086;SDS011;5597;47.588;9.642;2023-02-04T11:26:03;2.17;;;1.67;;
11086;SDS011;5597;47.588;9.642;2023-02-04T11:33:46;1.77;;;1.50;;
11086;SDS011;5597;47.588;9.642;2023-02-04T11:36:13;2.37;;;1.60;;
11086;SDS011;5597;47.588;9.642;2023-02-04T11:38:47;1.93;;;1.57;;
11086;SDS011;5597;47.588;9.642;2023-02-04T11:41:15;2.13;;;1.80;;
11086;SDS011;5597;47.588;9.642;2023-02-04T11:43:56;2.13;;;1.87;;
11086;SDS011;5597;47.588;9.642;2023-02-04T11:46:22;1.73;;;1.63;;
11086;SDS011;5597;47.588;9.642;2023-02-04T11:48:59;2.37;;;1.63;;
11086;SDS011;5597;47.588;9.642;2023-02-04T11:51:34;2.10;;;1.50;;
11086;SDS011;5597;47.588;9.642;2023-02-04T11:54:00;1.30;;;1.20;;
11086;SDS011;5597;47.588;9.642;2023-02-04T11:56:27;1.40;;;1.20;;
11086;SDS011;5597;47.588;9.642;2023-02-04T11:58:54;1.93;;;1.30;;
11086;SDS011;5597;47.588;9.642;2023-02-04T12:01:22;1.27;;;1.17;;
11086;SDS011;5597;47.588;9.642;2023-02-04T12:03:57;2.67;;;1.60;;
11086;SDS011;5597;47.588;9.642;2023-02-04T12:06:28;2.50;;;1.53;;
11086;SDS011;5597;47.588;9.642;2023-02-04T12:09:03;2.23;;;1.57;;
11086;SDS011;5597;47.588;9.642;2023-02-04T12:11:29;2.90;;;1.37;;
11086;SDS011;5597;47.588;9.642;2023-02-04T12:13:55;2.50;;;1.60;;
11086;SDS011;5597;47.588;9.642;2023-02-04T12:16:23;3.87;;;1.40;;
11086;SDS011;5597;47.588;9.642;2023-02-04T12:18:50;3.10;;;1.60;;
11086;SDS011;5597;47.588;9.642;2023-02-04T12:21:16;2.40;;;1.40;;
11086;SDS011;5597;47.588;9.642;2023-02-04T12:23:43;2.43;;;1.30;;
11086;SDS011;5597;47.588;9.642;2023-02-04T12:26:09;2.50;;;1.50;;
11086;SDS011;5597;47.588;9.642;2023-02-04T12:28:35;2.30;;;1.50;;
11086;SDS011;5597;47.588;9.642;2023-02-04T12:31:00;6.57;;;3.67;;
11086;SDS011;5597;47.588;9.642;2023-02-04T12:33:26;4.27;;;3.10;;
11086;SDS011;5597;47.588;9.642;2023-02-04T12:35:52;3.77;;;2.30;;
11086;SDS011;5597;47.588;9.642;2023-02-04T12:38:18;3.57;;;2.13;;
11086;SDS011;5597;47.588;9.642;2023-02-04T12:40:44;5.77;;;1.90;;
11086;SDS011;5597;47.588;9.642;2023-02-04T12:43:10;2.83;;;2.00;;
11086;SDS011;5597;47.588;9.642;2023-02-04T12:45:35;3.97;;;1.90;;
11086;SDS011;5597;47.588;9.642;2023-02-04T12:48:02;2.10;;;1.77;;
11086;SDS011;5597;47.588;9.642;2023-02-04T12:50:28;3.87;;;1.80;;
11086;SDS011;5597;47.588;9.642;2023-02-04T12:52:57;2.40;;;1.57;;
11086;SDS011;5597;47.588;9.642;2023-02-04T12:55:24;2.33;;;1.63;;
11086;SDS011;5597;47.588;9.642;2023-02-04T12:57:50;2.90;;;1.50;;
11086;SDS011;5597;47.588;9.642;2023-02-04T13:00:17;2.43;;;1.80;;
11086;SDS011;5597;47.588;9.642;2023-02-04T13:02:44;4.43;;;1.90;;
11086;SDS011;5597;47.588;9.642;2023-02-04T13:05:10;3.00;;;1.80;;
11086;SDS011;5597;47.588;9.642;2023-02-04T13:07:36;2.90;;;2.10;;
11086;SDS011;5597;47.588;9.642;2023-02-04T13:10:04;2.80;;;2.30;;
11086;SDS011;5597;47.588;9.642;2023-02-04T13:12:30;4.57;;;2.40;;
11086;SDS011;5597;47.588;9.642;2023-02-04T13:14:56;5.50;;;2.73;;
11086;SDS011;5597;47.588;9.642;2023-02-04T13:17:21;3.87;;;2.50;;
11086;SDS011;5597;47.588;9.642;2023-02-04T13:19:47;5.07;;;2.57;;
11086;SDS011;5597;47.588;9.642;2023-02-04T13:22:13;3.83;;;2.30;;
11086;SDS011;5597;47.588;9.642;2023-02-04T13:24:38;4.60;;;2.30;;
11086;SDS011;5597;47.588;9.642;2023-02-04T13:27:04;3.67;;;1.83;;
11086;SDS011;5597;47.588;9.642;2023-02-04T13:29:29;4.33;;;2.10;;
11086;SDS011;5597;47.588;9.642;2023-02-04T13:31:55;3.53;;;2.37;;
11086;SDS011;5597;47.588;9.642;2023-02-04T13:34:20;4.33;;;2.40;;
11086;SDS011;5597;47.588;9.642;2023-02-04T13:36:46;6.27;;;2.83;;
11086;SDS011;5597;47.588;9.642;2023-02-04T13:39:12;4.50;;;2.87;;
11086;SDS011;5597;47.588;9.642;2023-02-04T13:41:38;4.23;;;2.23;;
11086;SDS011;5597;47.588;9.642;2023-02-04T13:44:04;3.53;;;2.57;;
11086;SDS011;5597;47.588;9.642;2023-02-04T13:46:30;3.20;;;2.17;;
11086;SDS011;5597;47.588;9.642;2023-02-04T13:48:56;4.17;;;2.67;;
11086;SDS011;5597;47.588;9.642;2023-02-04T13:51:21;2.97;;;2.13;;
11086;SDS011;5597;47.588;9.642;2023-02-04T13:53:47;4.13;;;2.27;;
11086;SDS011;5597;47.588;9.642;2023-02-04T13:56:13;2.70;;;2.30;;
11086;SDS011;5597;47.588;9.642;2023-02-04T13:58:38;3.70;;;2.23;;
11086;SDS011;5597;47.588;9.642;2023-02-04T14:01:08;4.00;;;2.40;;
11086;SDS011;5597;47.588;9.642;2023-02-04T14:03:34;5.07;;;3.00;;
11086;SDS011;5597;47.588;9.642;2023-02-04T14:06:00;3.53;;;2.90;;
11086;SDS011;5597;47.588;9.642;2023-02-04T14:08:25;5.27;;;3.40;;
11086;SDS011;5597;47.588;9.642;2023-02-04T14:10:52;6.37;;;2.80;;
11086;SDS011;5597;47.588;9.642;2023-02-04T14:13:17;3.97;;;2.70;;
11086;SDS011;5597;47.588;9.642;2023-02-04T14:15:43;3.83;;;2.90;;
11086;SDS011;5597;47.588;9.642;2023-02-04T14:18:09;3.60;;;2.83;;
11086;SDS011;5597;47.588;9.642;2023-02-04T14:20:35;4.10;;;2.50;;
11086;SDS011;5597;47.588;9.642;2023-02-04T14:23:01;6.10;;;3.07;;
11086;SDS011;5597;47.588;9.642;2023-02-04T14:25:28;3.87;;;2.60;;
11086;SDS011;5597;47.588;9.642;2023-02-04T14:27:53;4.87;;;2.70;;
11086;SDS011;5597;47.588;9.642;2023-02-04T14:30:24;5.10;;;2.37;;
11086;SDS011;5597;47.588;9.642;2023-02-04T14:32:51;4.40;;;2.10;;
11086;SDS011;5597;47.588;9.642;2023-02-04T14:35:17;4.33;;;2.40;;
11086;SDS011;5597;47.588;9.642;2023-02-04T14:37:43;2.80;;;2.13;;
11086;SDS011;5597;47.588;9.642;2023-02-04T14:40:10;2.53;;;1.93;;
11086;SDS011;5597;47.588;9.642;2023-02-04T14:42:37;3.30;;;2.03;;
11086;SDS011;5597;47.588;9.642;2023-02-04T14:45:03;4.37;;;2.50;;
11086;SDS011;5597;47.588;9.642;2023-02-04T14:47:30;2.70;;;2.00;;
11086;SDS011;5597;47.588;9.642;2023-02-04T14:49:56;4.23;;;2.03;;
11086;SDS011;5597;47.588;9.642;2023-02-04T14:52:22;4.87;;;2.60;;
11086;SDS011;5597;47.588;9.642;2023-02-04T14:54:47;6.57;;;4.17;;
11086;SDS011;5597;47.588;9.642;2023-02-04T14:57:13;11.17;;;6.30;;
11086;SDS011;5597;47.588;9.642;2023-02-04T14:59:39;11.13;;;6.20;;
11086;SDS011;5597;47.588;9.642;2023-02-04T15:02:04;14.83;;;7.17;;
11086;SDS011;5597;47.588;9.642;2023-02-04T15:04:30;16.07;;;9.53;;
11086;SDS011;5597;47.588;9.642;2023-02-04T15:06:56;12.10;;;6.80;;
11086;SDS011;5597;47.588;9.642;2023-02-04T15:09:23;7.33;;;4.10;;
11086;SDS011;5597;47.588;9.642;2023-02-04T15:11:49;5.93;;;3.73;;
11086;SDS011;5597;47.588;9.642;2023-02-04T15:14:15;5.57;;;3.30;;
11086;SDS011;5597;47.588;9.642;2023-02-04T15:16:41;3.77;;;2.90;;